Time;durP1;ratioP1;P1;durP2;ratioP2;P2;SDS_P1;SDS_P2;PMS_P1;PMS_P2;Temp;Humidity;BMP_temperature;BMP_pressure;BME280_temperature;BME280_humidity;BME280_pressure;Samples;Min_cycle;Max_cycle;Signal;HPM_P1;HPM_P2
2023/10/31 00:01:58;;;;;;;6.37;4.50;;;14.10;99.90;;;;;;5069276;28;20238;-59
2023/10/31 00:04:24;;;;;;;7.33;4.00;;;14.00;99.90;;;;;;5065957;28;20286;-58
2023/10/31 00:06:50;;;;;;;4.80;4.23;;;14.10;99.90;;;;;;5067835;28;20810;-60
2023/10/31 00:09:15;;;;;;;9.63;5.60;;;14.20;99.90;;;;;;5069687;28;20209;-62
2023/10/31 00:11:42;;;;;;;7.20;4.30;;;14.30;99.90;;;;;;5071783;28;20197;-60
2023/10/31 00:14:08;;;;;;;4.83;3.90;;;14.40;99.90;;;;;;5070144;28;20257;-59
2023/10/31 00:16:33;;;;;;;6.93;4.63;;;14.40;99.90;;;;;;5072143;28;20233;-60
2023/10/31 00:18:59;;;;;;;5.80;3.93;;;14.50;99.90;;;;;;5070469;28;20207;-59
2023/10/31 00:21:24;;;;;;;9.60;5.40;;;14.50;99.90;;;;;;5071363;28;20804;-58
2023/10/31 00:23:50;;;;;;;6.27;4.37;;;14.50;99.90;;;;;;5068425;28;20224;-56
2023/10/31 00:26:16;;;;;;;8.23;4.53;;;14.50;99.90;;;;;;5067314;28;20792;-57
2023/10/31 00:28:41;;;;;;;6.37;3.83;;;14.50;99.90;;;;;;5069353;28;20719;-56
2023/10/31 00:31:08;;;;;;;7.30;4.13;;;14.40;99.90;;;;;;5069536;28;20221;-56
2023/10/31 00:33:34;;;;;;;6.20;4.20;;;14.30;99.90;;;;;;5070770;28;20301;-59
2023/10/31 00:35:59;;;;;;;6.17;4.43;;;14.20;99.90;;;;;;5070833;28;20195;-57
2023/10/31 00:38:25;;;;;;;6.20;3.97;;;14.10;99.90;;;;;;5069336;28;20198;-57
2023/10/31 00:40:51;;;;;;;5.33;4.13;;;14.00;99.90;;;;;;5072392;28;20200;-56
2023/10/31 00:43:16;;;;;;;4.20;3.80;;;14.10;99.90;;;;;;5069166;28;20907;-59
2023/10/31 00:45:41;;;;;;;7.20;4.10;;;14.20;99.90;;;;;;5062930;28;20201;-55
2023/10/31 00:48:07;;;;;;;4.77;4.17;;;14.10;99.90;;;;;;5066700;28;20230;-57
2023/10/31 00:50:32;;;;;;;9.07;5.30;;;14.20;99.90;;;;;;5071939;28;20197;-57
2023/10/31 00:52:58;;;;;;;9.23;5.63;;;14.10;99.90;;;;;;5068244;28;20678;-55
2023/10/31 00:55:24;;;;;;;11.03;5.70;;;14.10;99.90;;;;;;5069852;28;20232;-56
2023/10/31 00:57:50;;;;;;;6.93;4.83;;;14.10;99.90;;;;;;5065601;28;20193;-56
2023/10/31 01:00:16;;;;;;;7.00;5.10;;;14.20;99.90;;;;;;5073948;28;20245;-56
2023/10/31 01:02:41;;;;;;;7.33;5.00;;;14.20;99.90;;;;;;5069883;28;20216;-56
2023/10/31 01:05:07;;;;;;;4.77;4.20;;;14.20;99.90;;;;;;5069001;28;20213;-56
2023/10/31 01:07:34;;;;;;;6.10;4.67;;;14.40;99.90;;;;;;5066873;28;20214;-56
2023/10/31 01:09:59;;;;;;;4.37;3.97;;;14.30;99.90;;;;;;5071404;28;20213;-56
2023/10/31 01:12:27;;;;;;;8.20;4.73;;;14.30;99.90;;;;;;5070857;28;20496;-58
2023/10/31 01:14:53;;;;;;;5.33;4.80;;;14.20;99.90;;;;;;5063086;28;20691;-57
2023/10/31 01:17:19;;;;;;;7.60;5.07;;;13.80;99.90;;;;;;5069350;28;20213;-57
2023/10/31 01:19:44;;;;;;;8.83;5.40;;;13.60;99.90;;;;;;5067241;28;20294;-56
2023/10/31 01:22:10;;;;;;;7.50;4.90;;;13.70;99.90;;;;;;5069752;28;20227;-56
2023/10/31 01:24:35;;;;;;;5.37;4.67;;;13.80;99.90;;;;;;5062999;28;20347;-57
2023/10/31 01:27:01;;;;;;;5.30;4.40;;;13.90;99.90;;;;;;5071062;28;20204;-58
2023/10/31 01:29:26;;;;;;;8.00;4.40;;;13.90;99.90;;;;;;5068402;28;20304;-57
2023/10/31 01:31:51;;;;;;;7.53;4.87;;;13.90;99.90;;;;;;5070563;28;20506;-57
2023/10/31 01:34:17;;;;;;;6.40;4.63;;;13.90;99.90;;;;;;5068370;28;20197;-58
2023/10/31 01:36:42;;;;;;;5.37;4.57;;;13.90;99.90;;;;;;5068286;28;20213;-57
2023/10/31 01:39:09;;;;;;;5.00;4.50;;;13.90;99.90;;;;;;5070617;28;20572;-57
2023/10/31 01:41:35;;;;;;;6.60;5.07;;;14.10;99.90;;;;;;5071259;28;20288;-56
2023/10/31 01:44:00;;;;;;;12.50;5.10;;;14.30;99.90;;;;;;5060462;28;20221;-70
2023/10/31 01:46:26;;;;;;;6.00;4.13;;;14.30;99.90;;;;;;5061944;28;20744;-72
2023/10/31 01:48:52;;;;;;;6.57;4.93;;;14.30;99.90;;;;;;5065942;28;20209;-59
2023/10/31 01:51:17;;;;;;;7.20;5.03;;;14.30;99.90;;;;;;5064498;28;20856;-58
2023/10/31 01:53:43;;;;;;;6.20;5.50;;;14.10;99.90;;;;;;5068177;28;20205;-57
2023/10/31 01:56:08;;;;;;;5.90;5.30;;;14.00;99.90;;;;;;5070409;28;20244;-57
2023/10/31 01:58:35;;;;;;;8.20;4.27;;;13.90;99.90;;;;;;5066593;28;20285;-57
2023/10/31 02:01:01;;;;;;;8.23;4.93;;;13.90;99.90;;;;;;5067105;28;20198;-58
2023/10/31 02:03:30;;;;;;;9.00;5.17;;;13.90;99.90;;;;;;5072907;28;20213;-57
2023/10/31 02:05:56;;;;;;;6.67;4.50;;;13.80;99.90;;;;;;5067106;28;20495;-57
2023/10/31 02:08:24;;;;;;;9.67;4.73;;;13.90;99.90;;;;;;5069077;28;20198;-57
2023/10/31 02:10:49;;;;;;;5.27;4.43;;;13.70;99.90;;;;;;5068298;28;20205;-57
2023/10/31 02:13:17;;;;;;;5.77;4.67;;;13.70;99.90;;;;;;5064966;28;20262;-57
2023/10/31 02:15:43;;;;;;;9.53;5.53;;;13.50;99.90;;;;;;5064539;28;20204;-57
2023/10/31 02:18:08;;;;;;;8.27;4.50;;;13.60;99.90;;;;;;5064576;28;20221;-58
2023/10/31 02:20:35;;;;;;;9.27;5.07;;;13.80;99.90;;;;;;5068551;28;20738;-57
2023/10/31 02:23:02;;;;;;;5.67;4.83;;;13.90;99.90;;;;;;5069417;28;20728;-57
2023/10/31 02:25:27;;;;;;;4.83;4.40;;;13.90;99.90;;;;;;5067486;28;20197;-57
2023/10/31 02:27:53;;;;;;;7.10;4.87;;;13.80;99.90;;;;;;5071873;28;20212;-58
2023/10/31 02:30:19;;;;;;;6.40;5.40;;;13.80;99.90;;;;;;5072890;28;20205;-57
2023/10/31 02:32:44;;;;;;;7.67;5.07;;;13.80;99.90;;;;;;5074673;28;20205;-58
2023/10/31 02:35:12;;;;;;;5.27;4.77;;;13.60;99.90;;;;;;5073818;28;20870;-57
2023/10/31 02:37:37;;;;;;;7.97;5.37;;;13.60;99.90;;;;;;5072256;28;20622;-57
2023/10/31 02:40:03;;;;;;;8.33;6.17;;;13.80;99.90;;;;;;5069453;28;20201;-57
2023/10/31 02:42:29;;;;;;;7.87;5.97;;;13.90;99.90;;;;;;5073388;28;20296;-57
2023/10/31 02:44:54;;;;;;;8.37;6.07;;;14.10;99.90;;;;;;5068156;28;20663;-57
2023/10/31 02:47:20;;;;;;;8.60;5.20;;;14.20;99.90;;;;;;5069228;28;20231;-57
2023/10/31 02:49:45;;;;;;;5.17;4.57;;;14.20;99.90;;;;;;5073325;28;20204;-57
2023/10/31 02:52:11;;;;;;;7.33;5.50;;;14.20;99.90;;;;;;5070596;28;20583;-58
2023/10/31 02:54:37;;;;;;;8.27;6.00;;;14.20;99.90;;;;;;5071831;28;20212;-57
2023/10/31 02:57:03;;;;;;;8.20;5.40;;;14.10;99.90;;;;;;5073122;28;20194;-57
2023/10/31 02:59:28;;;;;;;8.10;5.03;;;14.10;99.90;;;;;;5068200;28;20228;-55
2023/10/31 03:01:56;;;;;;;5.90;5.30;;;14.10;99.90;;;;;;5072510;28;20204;-56
2023/10/31 03:04:21;;;;;;;7.30;5.47;;;14.00;99.90;;;;;;5071418;28;20774;-57
2023/10/31 03:06:47;;;;;;;7.23;5.13;;;14.00;99.90;;;;;;5073514;28;20284;-56
2023/10/31 03:09:12;;;;;;;7.77;5.33;;;13.70;99.90;;;;;;5074189;28;20288;-58
2023/10/31 03:11:37;;;;;;;6.63;5.67;;;13.60;99.90;;;;;;5075488;28;20759;-55
2023/10/31 03:14:03;;;;;;;8.00;6.67;;;13.50;99.90;;;;;;5073380;28;20201;-56
2023/10/31 03:16:28;;;;;;;6.90;5.20;;;13.50;99.90;;;;;;5073498;28;20298;-57
2023/10/31 03:18:54;;;;;;;8.03;6.40;;;13.40;99.90;;;;;;5069864;28;20316;-56
2023/10/31 03:21:19;;;;;;;7.60;5.90;;;13.40;99.90;;;;;;5067979;28;20185;-57
2023/10/31 03:23:49;;;;;;;7.10;5.07;;;13.50;99.90;;;;;;5069878;28;20250;-57
2023/10/31 03:26:17;;;;;;;6.80;5.70;;;13.50;99.90;;;;;;5067862;28;20221;-57
2023/10/31 03:28:44;;;;;;;6.23;5.00;;;13.60;99.90;;;;;;5070184;28;20281;-68
2023/10/31 03:31:10;;;;;;;7.03;5.77;;;13.70;99.90;;;;;;5073173;28;20194;-58
2023/10/31 03:33:36;;;;;;;5.67;5.10;;;13.60;99.90;;;;;;5072314;28;20198;-56
2023/10/31 03:36:01;;;;;;;7.47;5.63;;;13.70;99.90;;;;;;5068236;28;20658;-56
2023/10/31 03:38:27;;;;;;;7.17;5.80;;;13.80;99.90;;;;;;5067702;28;20943;-57
2023/10/31 03:40:52;;;;;;;8.70;4.90;;;13.80;99.90;;;;;;5065984;28;20197;-57
2023/10/31 03:43:18;;;;;;;5.80;4.87;;;13.60;99.90;;;;;;5070744;28;20286;-57
2023/10/31 03:45:43;;;;;;;6.00;5.50;;;13.60;99.90;;;;;;5068957;28;20280;-56
2023/10/31 03:48:09;;;;;;;6.67;5.20;;;13.60;99.90;;;;;;5071333;28;20204;-57
2023/10/31 03:50:35;;;;;;;5.40;4.67;;;13.70;99.90;;;;;;5073176;28;20840;-58
2023/10/31 03:53:00;;;;;;;5.87;5.13;;;13.70;99.90;;;;;;5071071;28;20197;-66
2023/10/31 03:55:26;;;;;;;6.47;5.87;;;13.50;99.90;;;;;;5067910;28;20631;-55
2023/10/31 03:57:51;;;;;;;6.27;5.47;;;13.30;99.90;;;;;;5068316;28;20204;-56
2023/10/31 04:00:17;;;;;;;6.87;6.17;;;13.40;99.90;;;;;;5064766;28;20625;-56
2023/10/31 04:02:42;;;;;;;8.07;7.20;;;13.40;99.90;;;;;;5069269;28;20226;-56
2023/10/31 04:05:08;;;;;;;6.73;6.10;;;13.40;99.90;;;;;;5067365;28;20315;-55
2023/10/31 04:07:34;;;;;;;7.17;6.03;;;13.30;99.90;;;;;;5065314;28;20210;-55
2023/10/31 04:09:59;;;;;;;6.37;5.00;;;13.20;99.90;;;;;;5067441;28;20752;-56
2023/10/31 04:12:25;;;;;;;7.00;5.93;;;13.40;99.90;;;;;;5071604;28;20568;-56
2023/10/31 04:14:50;;;;;;;9.83;6.67;;;13.30;99.90;;;;;;5068338;28;20200;-57
2023/10/31 04:17:16;;;;;;;6.10;5.50;;;13.30;99.90;;;;;;5072331;28;20223;-56
2023/10/31 04:19:41;;;;;;;6.67;5.90;;;13.10;99.90;;;;;;5071784;28;20885;-58
2023/10/31 04:22:07;;;;;;;7.97;6.00;;;12.90;99.90;;;;;;5073142;28;20298;-57
2023/10/31 04:24:32;;;;;;;6.33;5.67;;;13.00;99.90;;;;;;5067974;28;20571;-57
2023/10/31 04:26:58;;;;;;;5.43;4.93;;;13.00;99.90;;;;;;5067353;28;20248;-57
2023/10/31 04:29:23;;;;;;;6.40;5.80;;;12.90;99.90;;;;;;5067042;28;20209;-57
2023/10/31 04:31:49;;;;;;;6.73;6.07;;;12.60;99.90;;;;;;5068526;28;20189;-60
2023/10/31 04:34:14;;;;;;;8.67;5.83;;;12.60;99.90;;;;;;5068289;28;20207;-57
2023/10/31 04:36:40;;;;;;;6.13;5.53;;;12.60;99.90;;;;;;5068423;28;20201;-58
2023/10/31 04:39:06;;;;;;;7.53;6.63;;;12.50;99.90;;;;;;5065251;28;20200;-57
2023/10/31 04:41:31;;;;;;;7.63;6.83;;;12.30;99.90;;;;;;5068643;28;20208;-56
2023/10/31 04:43:57;;;;;;;7.23;6.07;;;12.50;99.90;;;;;;5060456;28;20226;-56
2023/10/31 04:46:24;;;;;;;8.17;7.33;;;12.60;99.90;;;;;;5068469;28;20208;-57
2023/10/31 04:48:50;;;;;;;8.33;7.33;;;12.70;99.90;;;;;;5070116;28;20209;-57
2023/10/31 04:51:15;;;;;;;9.83;8.53;;;12.50;99.90;;;;;;5069341;28;20724;-57
2023/10/31 04:53:41;;;;;;;8.90;7.80;;;12.40;99.90;;;;;;5065516;28;20195;-56
2023/10/31 04:56:13;;;;;;;12.77;8.37;;;12.30;99.90;;;;;;5064142;28;20203;-56
2023/10/31 04:58:39;;;;;;;10.27;7.43;;;12.30;99.90;;;;;;5066821;28;21095;-57
2023/10/31 05:01:08;;;;;;;14.53;9.10;;;12.30;99.90;;;;;;5068540;28;20207;-56
2023/10/31 05:03:34;;;;;;;10.00;7.50;;;12.30;99.90;;;;;;5070016;28;20337;-57
2023/10/31 05:05:59;;;;;;;9.07;7.70;;;12.50;99.90;;;;;;5070205;28;20223;-56
2023/10/31 05:08:25;;;;;;;9.70;8.70;;;12.60;99.90;;;;;;5072675;28;20257;-57
2023/10/31 05:10:50;;;;;;;7.90;7.20;;;12.70;99.90;;;;;;5064498;28;20251;-56
2023/10/31 05:13:16;;;;;;;9.03;7.73;;;12.70;99.90;;;;;;5070654;28;20280;-56
2023/10/31 05:15:41;;;;;;;8.13;7.33;;;12.50;99.90;;;;;;5066299;28;20258;-56
2023/10/31 05:18:07;;;;;;;7.33;6.63;;;12.40;99.90;;;;;;5069598;28;20207;-58
2023/10/31 05:20:32;;;;;;;8.23;7.23;;;12.30;99.90;;;;;;5069347;28;20201;-58
2023/10/31 05:22:58;;;;;;;8.10;7.17;;;12.30;99.90;;;;;;5063224;28;20287;-57
2023/10/31 05:25:23;;;;;;;8.30;6.70;;;12.40;99.90;;;;;;5069604;28;20278;-57
2023/10/31 05:27:49;;;;;;;7.23;6.60;;;12.40;99.90;;;;;;5067909;28;20189;-57
2023/10/31 05:30:14;;;;;;;9.97;6.97;;;12.40;99.90;;;;;;5068460;28;20779;-57
2023/10/31 05:32:40;;;;;;;7.17;6.47;;;12.30;99.90;;;;;;5066855;28;20211;-56
2023/10/31 05:35:05;;;;;;;7.30;6.37;;;12.20;99.90;;;;;;5070031;28;20193;-56
2023/10/31 05:37:31;;;;;;;6.83;6.23;;;12.20;99.90;;;;;;5067290;28;20204;-57
2023/10/31 05:39:56;;;;;;;7.00;6.30;;;12.30;99.90;;;;;;5064271;28;20198;-57
2023/10/31 05:42:23;;;;;;;6.43;5.07;;;12.30;99.90;;;;;;5070403;28;20749;-57
2023/10/31 05:44:48;;;;;;;6.00;5.40;;;12.50;99.90;;;;;;5064933;28;20385;-57
2023/10/31 05:47:14;;;;;;;7.77;4.90;;;12.50;99.90;;;;;;5069373;28;21184;-57
2023/10/31 05:49:43;;;;;;;5.40;4.90;;;12.50;99.90;;;;;;5069499;28;20199;-57
2023/10/31 05:52:08;;;;;;;4.80;4.40;;;12.40;99.90;;;;;;5069517;28;20189;-57
2023/10/31 05:54:33;;;;;;;4.57;4.23;;;12.50;99.90;;;;;;5064329;28;20675;-57
2023/10/31 05:56:59;;;;;;;4.40;4.10;;;12.30;99.90;;;;;;5067113;28;20194;-61
2023/10/31 05:59:25;;;;;;;4.27;3.93;;;12.40;99.90;;;;;;5072066;28;20255;-56
2023/10/31 06:01:50;;;;;;;4.77;4.20;;;12.70;99.90;;;;;;5069077;28;20850;-56
2023/10/31 06:04:16;;;;;;;4.70;4.23;;;12.60;99.90;;;;;;5072713;28;20239;-56
2023/10/31 06:06:41;;;;;;;5.63;4.80;;;12.70;99.90;;;;;;5074903;28;20853;-56
2023/10/31 06:09:08;;;;;;;6.43;5.83;;;12.80;99.90;;;;;;5072524;28;20373;-57
2023/10/31 06:11:34;;;;;;;6.13;5.30;;;12.80;99.90;;;;;;5067439;28;20225;-57
2023/10/31 06:13:59;;;;;;;6.53;6.03;;;12.80;99.90;;;;;;5075665;28;20772;-57
2023/10/31 06:16:25;;;;;;;6.67;6.03;;;12.90;99.90;;;;;;5070492;28;20221;-57
2023/10/31 06:18:50;;;;;;;7.23;6.13;;;12.90;99.90;;;;;;5072158;28;20207;-56
2023/10/31 06:21:16;;;;;;;10.37;5.93;;;13.00;99.90;;;;;;5073256;28;20630;-57
2023/10/31 06:23:45;;;;;;;8.57;7.00;;;12.90;99.90;;;;;;5072812;28;20666;-57
2023/10/31 06:26:10;;;;;;;8.17;7.30;;;12.70;99.90;;;;;;5070816;28;20287;-57
2023/10/31 06:28:37;;;;;;;8.60;7.43;;;12.80;99.90;;;;;;5073778;28;20892;-57
2023/10/31 06:31:03;;;;;;;7.43;6.73;;;12.80;99.90;;;;;;5073295;28;20261;-60
2023/10/31 06:33:29;;;;;;;7.20;6.50;;;12.90;99.90;;;;;;5072873;28;20204;-57
2023/10/31 06:35:55;;;;;;;7.80;7.10;;;13.00;99.90;;;;;;5067483;28;20216;-59
2023/10/31 06:38:24;;;;;;;6.90;6.30;;;13.00;99.90;;;;;;5072271;28;20212;-58
2023/10/31 06:40:49;;;;;;;7.00;6.40;;;13.00;99.90;;;;;;5068451;28;20661;-58
2023/10/31 06:43:15;;;;;;;7.43;6.77;;;13.00;99.90;;;;;;5068222;28;20380;-57
2023/10/31 06:45:40;;;;;;;7.33;5.60;;;13.00;99.90;;;;;;5066366;28;20741;-56
2023/10/31 06:48:08;;;;;;;5.73;5.03;;;13.00;99.90;;;;;;5066559;28;20808;-59
2023/10/31 06:50:34;;;;;;;6.23;5.67;;;12.90;99.90;;;;;;5070124;28;20200;-59
2023/10/31 06:52:59;;;;;;;5.90;5.33;;;12.80;99.90;;;;;;5070922;28;20234;-59
2023/10/31 06:55:25;;;;;;;5.07;4.67;;;12.90;99.90;;;;;;5072862;28;20576;-59
2023/10/31 06:57:50;;;;;;;5.20;4.63;;;12.90;99.90;;;;;;5069033;28;20270;-57
2023/10/31 07:00:16;;;;;;;5.50;4.93;;;13.10;99.90;;;;;;5066883;28;20229;-58
2023/10/31 07:02:42;;;;;;;5.60;4.70;;;13.00;99.90;;;;;;5068374;28;20678;-56
2023/10/31 07:05:07;;;;;;;5.63;4.57;;;12.90;99.90;;;;;;5073140;28;20209;-57
2023/10/31 07:07:33;;;;;;;5.43;4.93;;;12.90;99.90;;;;;;5069217;28;20229;-57
2023/10/31 07:09:58;;;;;;;5.33;4.33;;;13.00;99.90;;;;;;5071663;28;21001;-57
2023/10/31 07:12:24;;;;;;;5.10;4.60;;;13.00;99.90;;;;;;5068409;28;20278;-57
2023/10/31 07:14:50;;;;;;;3.97;3.67;;;13.10;99.90;;;;;;5065620;28;20630;-56
2023/10/31 07:17:15;;;;;;;3.17;2.70;;;13.10;99.90;;;;;;5063739;28;20213;-57
2023/10/31 07:19:41;;;;;;;2.97;2.77;;;13.00;99.90;;;;;;5069727;28;20199;-58
2023/10/31 07:22:07;;;;;;;2.37;2.23;;;12.90;99.90;;;;;;5066865;28;20200;-58
2023/10/31 07:24:32;;;;;;;3.30;2.43;;;12.60;99.90;;;;;;5067878;28;20637;-65
2023/10/31 07:26:58;;;;;;;2.90;2.70;;;12.70;99.90;;;;;;5071808;28;20275;-66
2023/10/31 07:29:23;;;;;;;2.17;1.97;;;12.70;99.90;;;;;;5066639;28;20196;-56
2023/10/31 07:31:49;;;;;;;3.07;2.57;;;12.80;99.90;;;;;;5067493;28;20279;-70
2023/10/31 07:34:15;;;;;;;1.90;1.80;;;12.90;99.90;;;;;;5071014;28;20203;-77
2023/10/31 07:36:41;;;;;;;2.10;2.00;;;12.90;99.90;;;;;;5065421;28;20209;-59
2023/10/31 07:39:07;;;;;;;3.67;2.70;;;12.90;99.90;;;;;;5064110;28;20211;-60
2023/10/31 07:41:32;;;;;;;3.27;2.07;;;12.90;99.90;;;;;;5072532;28;20195;-67
2023/10/31 07:43:58;;;;;;;2.53;2.07;;;13.10;99.90;;;;;;5067814;28;20671;-60
2023/10/31 07:46:23;;;;;;;2.00;1.90;;;13.10;99.90;;;;;;5065506;28;20253;-59
2023/10/31 07:48:49;;;;;;;1.97;1.87;;;13.20;99.90;;;;;;5070879;28;20287;-59
2023/10/31 07:51:14;;;;;;;2.03;1.90;;;13.30;99.90;;;;;;5069677;28;20684;-59
2023/10/31 07:53:41;;;;;;;1.50;1.40;;;13.20;99.90;;;;;;5072842;28;20985;-60
2023/10/31 07:56:18;;;;;;;1.67;1.57;;;13.20;99.90;;;;;;5066826;28;20199;-59
2023/10/31 07:58:44;;;;;;;1.20;1.20;;;13.10;99.90;;;;;;5064083;28;20230;-59
2023/10/31 08:01:10;;;;;;;1.40;1.30;;;13.00;99.90;;;;;;5070855;28;20221;-61
2023/10/31 08:03:38;;;;;;;2.37;1.70;;;13.10;99.90;;;;;;5067441;28;20227;-63
2023/10/31 08:06:05;;;;;;;2.07;1.60;;;13.10;99.90;;;;;;5072563;28;20315;-65
2023/10/31 08:08:31;;;;;;;1.30;1.20;;;13.00;99.90;;;;;;5096872;27;20209;-58
2023/10/31 08:10:58;;;;;;;1.63;1.40;;;12.90;99.90;;;;;;5071580;28;20576;-59
2023/10/31 08:13:24;;;;;;;1.20;1.10;;;13.00;99.90;;;;;;5068680;28;20875;-60
2023/10/31 08:15:49;;;;;;;1.10;0.90;;;13.00;99.90;;;;;;5070273;28;20203;-61
2023/10/31 08:18:15;;;;;;;0.87;0.87;;;13.00;99.90;;;;;;5073046;28;20378;-59
2023/10/31 08:20:40;;;;;;;1.53;1.07;;;13.00;99.90;;;;;;5070308;28;20211;-60
2023/10/31 08:23:06;;;;;;;0.87;0.87;;;13.00;99.90;;;;;;5072323;28;20217;-59
2023/10/31 08:25:31;;;;;;;1.23;1.10;;;13.20;99.90;;;;;;5068056;28;20283;-59
2023/10/31 08:27:57;;;;;;;1.53;1.43;;;13.00;99.90;;;;;;5070918;28;20192;-68
2023/10/31 08:30:22;;;;;;;1.00;1.00;;;13.00;99.90;;;;;;5065439;28;20670;-72
2023/10/31 08:32:48;;;;;;;1.60;0.83;;;12.90;99.90;;;;;;5065064;28;20857;-59
2023/10/31 08:35:13;;;;;;;0.60;0.60;;;12.80;99.90;;;;;;5072081;28;20248;-61
2023/10/31 08:37:39;;;;;;;0.90;0.90;;;12.70;99.90;;;;;;5065380;28;20281;-59
2023/10/31 08:40:05;;;;;;;0.93;0.80;;;12.40;99.90;;;;;;5064368;28;20204;-61
2023/10/31 08:42:31;;;;;;;0.50;0.50;;;12.40;99.90;;;;;;5068985;28;20219;-65
2023/10/31 08:44:56;;;;;;;0.60;0.60;;;12.50;99.90;;;;;;5062109;28;20198;-61
2023/10/31 08:47:23;;;;;;;0.80;0.40;;;12.40;99.90;;;;;;5069075;28;20226;-67
2023/10/31 08:49:48;;;;;;;1.00;0.57;;;12.30;99.90;;;;;;5072644;28;20295;-61
2023/10/31 08:52:14;;;;;;;0.70;0.60;;;12.40;99.90;;;;;;5071746;28;20614;-61
2023/10/31 08:54:39;;;;;;;2.93;0.87;;;12.40;99.90;;;;;;5069155;28;20450;-61
2023/10/31 08:57:05;;;;;;;0.93;0.40;;;12.40;99.90;;;;;;5066586;28;20227;-60
2023/10/31 08:59:30;;;;;;;0.60;0.60;;;12.60;99.90;;;;;;5070543;28;20198;-61
2023/10/31 09:01:56;;;;;;;0.60;0.60;;;12.60;99.90;;;;;;5070009;28;20254;-61
2023/10/31 09:04:22;;;;;;;2.63;0.83;;;12.50;99.90;;;;;;5072180;28;20587;-69
2023/10/31 09:06:47;;;;;;;0.70;0.70;;;12.60;99.90;;;;;;5069622;28;20252;-72
2023/10/31 09:09:13;;;;;;;0.40;0.40;;;12.50;99.90;;;;;;5069503;28;20766;-60
2023/10/31 09:11:39;;;;;;;0.70;0.40;;;12.60;99.90;;;;;;5062309;28;20195;-61
2023/10/31 09:14:04;;;;;;;0.70;0.70;;;12.60;99.90;;;;;;5068794;28;20203;-61
2023/10/31 09:16:30;;;;;;;0.70;0.57;;;12.70;99.90;;;;;;5070727;28;20242;-58
2023/10/31 09:18:55;;;;;;;1.57;0.60;;;12.70;99.90;;;;;;5063998;28;20217;-63
2023/10/31 09:21:21;;;;;;;0.67;0.67;;;12.70;99.90;;;;;;5064628;28;20191;-59
2023/10/31 09:23:47;;;;;;;0.57;0.57;;;12.80;99.90;;;;;;5063170;28;20305;-60
2023/10/31 09:26:12;;;;;;;0.50;0.50;;;12.70;99.90;;;;;;5061620;28;20245;-58
2023/10/31 09:28:39;;;;;;;0.53;0.53;;;12.70;99.90;;;;;;5067608;28;20311;-61
2023/10/31 09:31:04;;;;;;;0.40;0.40;;;12.80;99.90;;;;;;5061371;28;20976;-61
2023/10/31 09:33:30;;;;;;;0.33;0.33;;;12.80;99.90;;;;;;5067258;28;20199;-60
2023/10/31 09:35:56;;;;;;;2.00;0.67;;;12.70;99.90;;;;;;5065436;28;20250;-60
2023/10/31 09:38:21;;;;;;;0.87;0.60;;;12.60;99.90;;;;;;5067059;28;20224;-61
2023/10/31 09:40:47;;;;;;;0.60;0.60;;;12.60;99.90;;;;;;5059702;28;20299;-62
2023/10/31 09:43:12;;;;;;;0.67;0.67;;;12.50;99.90;;;;;;5064599;28;20292;-62
2023/10/31 09:45:38;;;;;;;1.17;0.70;;;12.50;99.90;;;;;;5061269;28;20246;-60
2023/10/31 09:48:03;;;;;;;0.93;0.93;;;12.70;99.90;;;;;;5068007;28;20214;-60
2023/10/31 09:50:30;;;;;;;0.63;0.60;;;12.70;99.90;;;;;;5060681;28;20615;-58
2023/10/31 09:52:56;;;;;;;1.67;1.00;;;12.80;99.90;;;;;;5065316;28;20317;-58
2023/10/31 09:55:22;;;;;;;0.80;0.80;;;12.80;99.90;;;;;;5063164;28;20200;-60
2023/10/31 09:57:48;;;;;;;1.47;0.90;;;12.80;99.90;;;;;;5070171;28;20242;-59
2023/10/31 10:00:13;;;;;;;0.97;0.97;;;12.90;99.90;;;;;;5063974;28;20202;-69
2023/10/31 10:02:40;;;;;;;2.50;1.00;;;12.80;99.90;;;;;;5070253;28;20874;-71
2023/10/31 10:05:06;;;;;;;2.00;1.10;;;12.90;99.90;;;;;;5065631;28;20195;-66
2023/10/31 10:07:33;;;;;;;0.90;0.90;;;12.90;99.90;;;;;;5063331;28;20197;-59
2023/10/31 10:10:00;;;;;;;0.80;0.80;;;12.90;99.90;;;;;;5066845;28;20220;-59
2023/10/31 10:12:26;;;;;;;1.00;1.00;;;12.80;99.90;;;;;;5066942;28;20197;-59
2023/10/31 10:14:52;;;;;;;1.03;1.03;;;12.90;99.90;;;;;;5064451;28;20677;-59
2023/10/31 10:17:21;;;;;;;1.00;0.90;;;12.90;99.90;;;;;;5064940;28;20220;-60
2023/10/31 10:19:47;;;;;;;2.37;1.03;;;13.00;99.90;;;;;;5066970;28;20204;-70
2023/10/31 10:22:14;;;;;;;1.13;1.10;;;13.00;99.90;;;;;;5070024;28;20202;-73
2023/10/31 10:24:41;;;;;;;0.77;0.73;;;12.90;99.90;;;;;;5065809;28;20575;-74
2023/10/31 10:27:08;;;;;;;1.30;1.20;;;13.00;99.90;;;;;;5067438;28;20244;-65
2023/10/31 10:29:34;;;;;;;2.07;1.40;;;13.20;99.90;;;;;;5069404;28;20274;-59
2023/10/31 10:31:59;;;;;;;1.23;1.03;;;13.40;99.90;;;;;;5065839;28;20959;-60
2023/10/31 10:34:25;;;;;;;3.37;0.90;;;13.50;99.90;;;;;;5066306;28;20217;-59
2023/10/31 10:36:51;;;;;;;1.27;1.27;;;13.60;99.90;;;;;;5065295;28;20910;-58
2023/10/31 10:39:21;;;;;;;1.93;1.57;;;13.60;99.90;;;;;;5065889;28;20203;-58
2023/10/31 10:41:55;;;;;;;1.67;1.07;;;13.60;99.90;;;;;;5067269;28;20362;-59
2023/10/31 10:44:32;;;;;;;1.43;1.33;;;13.60;99.90;;;;;;5064717;28;20378;-59
2023/10/31 10:47:00;;;;;;;3.37;1.10;;;13.70;99.90;;;;;;5066132;28;20193;-58
2023/10/31 10:49:28;;;;;;;0.87;0.87;;;13.70;99.90;;;;;;5069256;28;20200;-59
2023/10/31 10:52:02;;;;;;;1.20;1.10;;;13.80;99.90;;;;;;5063526;28;20202;-59
2023/10/31 10:54:46;;;;;;;1.40;1.30;;;13.80;99.90;;;;;;5067981;28;20200;-60
2023/10/31 10:57:20;;;;;;;1.90;1.20;;;13.60;99.90;;;;;;5067533;28;20683;-60
2023/10/31 10:59:52;;;;;;;0.93;0.93;;;13.50;99.90;;;;;;5086427;27;20266;-60
2023/10/31 11:02:18;;;;;;;1.60;1.50;;;13.70;99.90;;;;;;5065953;28;20197;-78
2023/10/31 11:04:44;;;;;;;1.53;1.43;;;13.60;99.90;;;;;;5071235;28;20276;-60
2023/10/31 11:07:11;;;;;;;1.60;1.50;;;13.80;99.90;;;;;;5072283;28;20205;-59
2023/10/31 11:09:38;;;;;;;1.67;1.57;;;13.60;99.90;;;;;;5070327;28;20983;-70
2023/10/31 11:12:04;;;;;;;2.50;2.17;;;13.90;99.90;;;;;;5071046;28;20621;-74
2023/10/31 11:14:31;;;;;;;1.70;1.60;;;13.80;99.90;;;;;;5064466;28;20203;-69
2023/10/31 11:17:03;;;;;;;1.67;1.57;;;13.80;99.90;;;;;;5070918;28;20228;-70
2023/10/31 11:19:30;;;;;;;1.63;1.53;;;13.70;99.90;;;;;;5064911;28;20258;-67
2023/10/31 11:21:58;;;;;;;2.40;1.93;;;13.60;99.90;;;;;;5070475;28;20235;-60
2023/10/31 11:24:33;;;;;;;1.73;1.63;;;13.60;99.90;;;;;;5068741;28;20697;-58
2023/10/31 11:27:02;;;;;;;1.73;1.63;;;13.50;99.90;;;;;;5094279;27;20208;-61
2023/10/31 11:29:27;;;;;;;2.37;1.50;;;13.50;99.90;;;;;;5068226;28;20226;-59
2023/10/31 11:31:56;;;;;;;2.23;1.60;;;13.30;99.90;;;;;;5070180;28;20224;-59
2023/10/31 11:34:22;;;;;;;1.90;1.60;;;13.30;99.90;;;;;;5069986;28;20196;-58
2023/10/31 11:36:50;;;;;;;2.77;1.27;;;13.30;99.90;;;;;;5069757;28;20226;-60
2023/10/31 11:39:21;;;;;;;1.60;1.50;;;13.40;99.90;;;;;;5071206;28;20188;-60
2023/10/31 11:41:50;;;;;;;1.80;1.70;;;13.30;99.90;;;;;;5070380;28;20208;-61
2023/10/31 11:44:17;;;;;;;2.03;1.57;;;13.40;99.90;;;;;;5065311;28;20580;-66
2023/10/31 11:46:42;;;;;;;1.63;1.50;;;13.30;99.90;;;;;;5068446;28;20212;-59
2023/10/31 11:49:08;;;;;;;1.83;1.60;;;13.30;99.90;;;;;;5067810;28;20198;-61
2023/10/31 11:51:33;;;;;;;1.23;1.23;;;13.30;99.90;;;;;;5067758;28;20230;-58
2023/10/31 11:54:02;;;;;;;1.33;1.10;;;13.40;99.90;;;;;;5067523;28;20277;-60
2023/10/31 11:56:28;;;;;;;1.00;1.00;;;13.40;99.90;;;;;;5067387;28;20199;-71
2023/10/31 11:59:02;;;;;;;1.40;1.30;;;13.80;99.90;;;;;;5068344;28;20254;-60
2023/10/31 12:01:28;;;;;;;0.80;0.80;;;13.90;99.90;;;;;;5068341;28;20220;-59
2023/10/31 12:03:53;;;;;;;1.37;1.27;;;13.80;99.90;;;;;;5074627;28;20286;-59
2023/10/31 12:06:21;;;;;;;1.90;0.90;;;13.70;99.90;;;;;;5071867;28;20281;-59
2023/10/31 12:08:48;;;;;;;1.00;0.90;;;13.60;99.90;;;;;;5072451;28;20201;-59
2023/10/31 12:11:15;;;;;;;1.13;1.10;;;13.40;99.90;;;;;;5068844;28;20201;-59
2023/10/31 12:13:52;;;;;;;2.40;1.90;;;13.40;99.90;;;;;;5069862;28;20333;-61
2023/10/31 12:16:18;;;;;;;1.10;0.90;;;13.30;99.90;;;;;;5067876;28;20303;-61
2023/10/31 12:18:43;;;;;;;0.60;0.60;;;13.30;99.90;;;;;;5074739;28;20883;-74
2023/10/31 12:21:10;;;;;;;1.90;0.90;;;13.40;99.90;;;;;;5068604;28;20788;-61
2023/10/31 12:23:36;;;;;;;2.50;0.80;;;13.30;99.90;;;;;;5072175;28;20212;-58
2023/10/31 12:26:02;;;;;;;0.70;0.70;;;13.40;99.90;;;;;;5068497;28;20204;-59
2023/10/31 12:28:28;;;;;;;0.70;0.70;;;13.10;99.90;;;;;;5072789;28;20197;-59
2023/10/31 12:30:57;;;;;;;0.73;0.70;;;13.10;99.90;;;;;;5067750;28;20271;-62
2023/10/31 12:33:25;;;;;;;0.60;0.60;;;13.10;99.90;;;;;;5070214;28;20553;-60
2023/10/31 12:35:55;;;;;;;1.33;1.07;;;13.10;99.90;;;;;;5068654;28;20191;-59
2023/10/31 12:38:21;;;;;;;0.90;0.90;;;13.30;99.90;;;;;;5070736;28;20197;-59
2023/10/31 12:40:47;;;;;;;0.77;0.67;;;13.40;99.90;;;;;;5070366;28;20208;-59